sensor_id;sensor_type;location;lat;lon;timestamp;pressure;altitude;pressure_sealevel;temperature;humidity
75627;BME280;67372;49.404;11.034;2023-03-05T00:01:59;98339.41;;;2.85;72.59
75627;BME280;67372;49.404;11.034;2023-03-05T00:04:26;98337.44;;;2.87;71.39
75627;BME280;67372;49.404;11.034;2023-03-05T00:06:52;98334.81;;;2.87;72.88
75627;BME280;67372;49.404;11.034;2023-03-05T00:09:18;98335.63;;;2.88;72.31
75627;BME280;67372;49.404;11.034;2023-03-05T00:11:45;98335.63;;;2.88;72.83
75627;BME280;67372;49.404;11.034;2023-03-05T00:14:11;98338.09;;;2.89;72.89
75627;BME280;67372;49.404;11.034;2023-03-05T00:16:38;98331.50;;;2.85;72.65
75627;BME280;67372;49.404;11.034;2023-03-05T00:19:04;98335.63;;;2.88;72.82
75627;BME280;67372;49.404;11.034;2023-03-05T00:21:39;98343.38;;;2.89;72.70
75627;BME280;67372;49.404;11.034;2023-03-05T00:24:09;98336.91;;;2.84;73.16
75627;BME280;67372;49.404;11.034;2023-03-05T00:26:37;98330.81;;;2.83;73.00
75627;BME280;67372;49.404;11.034;2023-03-05T00:29:04;98330.53;;;2.86;73.53
75627;BME280;67372;49.404;11.034;2023-03-05T00:31:32;98327.06;;;2.86;73.73
75627;BME280;67372;49.404;11.034;2023-03-05T00:34:00;98322.28;;;2.81;73.91
75627;BME280;67372;49.404;11.034;2023-03-05T00:36:27;98327.06;;;2.86;74.03
75627;BME280;67372;49.404;11.034;2023-03-05T00:38:54;98325.09;;;2.88;73.88
75627;BME280;67372;49.404;11.034;2023-03-05T00:41:20;98323.09;;;2.82;74.47
75627;BME280;67372;49.404;11.034;2023-03-05T00:43:47;98318.97;;;2.79;74.03
75627;BME280;67372;49.404;11.034;2023-03-05T00:46:14;98317.53;;;2.85;73.85
75627;BME280;67372;49.404;11.034;2023-03-05T00:48:40;98315.03;;;2.83;73.89
75627;BME280;67372;49.404;11.034;2023-03-05T00:51:07;98325.09;;;2.88;73.92
75627;BME280;67372;49.404;11.034;2023-03-05T00:53:33;98314.88;;;2.85;73.97
75627;BME280;67372;49.404;11.034;2023-03-05T00:56:00;98315.84;;;2.84;74.54
75627;BME280;67372;49.404;11.034;2023-03-05T00:58:27;98316.69;;;2.84;74.82
75627;BME280;67372;49.404;11.034;2023-03-05T01:00:58;98319.16;;;2.86;74.33
75627;BME280;67372;49.404;11.034;2023-03-05T01:03:25;98317.34;;;2.86;73.75
75627;BME280;67372;49.404;11.034;2023-03-05T01:05:51;98311.44;;;2.84;74.49
75627;BME280;67372;49.404;11.034;2023-03-05T01:08:17;98315.03;;;2.83;74.33
75627;BME280;67372;49.404;11.034;2023-03-05T01:10:44;98308.63;;;2.86;74.39
75627;BME280;67372;49.404;11.034;2023-03-05T01:13:10;98309.44;;;2.86;74.61
75627;BME280;67372;49.404;11.034;2023-03-05T01:15:37;98304.47;;;2.83;74.89
75627;BME280;67372;49.404;11.034;2023-03-05T01:18:03;98307.81;;;2.85;74.37
75627;BME280;67372;49.404;11.034;2023-03-05T01:20:30;98300.72;;;2.86;74.48
75627;BME280;67372;49.404;11.034;2023-03-05T01:22:56;98294.47;;;2.87;74.05
75627;BME280;67372;49.404;11.034;2023-03-05T01:25:22;98293.13;;;2.83;74.40
75627;BME280;67372;49.404;11.034;2023-03-05T01:27:49;98295.13;;;2.89;74.49
75627;BME280;67372;49.404;11.034;2023-03-05T01:30:15;98295.47;;;2.86;74.67
75627;BME280;67372;49.404;11.034;2023-03-05T01:32:42;98291.31;;;2.83;74.77
75627;BME280;67372;49.404;11.034;2023-03-05T01:35:15;98293.00;;;2.84;74.70
75627;BME280;67372;49.404;11.034;2023-03-05T01:37:42;98287.19;;;2.81;75.25
75627;BME280;67372;49.404;11.034;2023-03-05T01:40:10;98288.84;;;2.82;74.64
75627;BME280;67372;49.404;11.034;2023-03-05T01:42:37;98275.69;;;2.82;74.77
75627;BME280;67372;49.404;11.034;2023-03-05T01:45:12;98292.31;;;2.82;75.13
75627;BME280;67372;49.404;11.034;2023-03-05T01:47:39;98277.81;;;2.78;74.27
75627;BME280;67372;49.404;11.034;2023-03-05T01:50:08;98277.81;;;2.78;74.82
75627;BME280;67372;49.404;11.034;2023-03-05T01:52:38;98281.44;;;2.77;75.23
75627;BME280;67372;49.404;11.034;2023-03-05T01:55:16;98280.63;;;2.76;75.40
75627;BME280;67372;49.404;11.034;2023-03-05T01:58:10;98280.47;;;2.78;75.23
75627;BME280;67372;49.404;11.034;2023-03-05T02:00:45;98275.19;;;2.78;74.93
75627;BME280;67372;49.404;11.034;2023-03-05T02:03:13;98270.25;;;2.75;75.27
75627;BME280;67372;49.404;11.034;2023-03-05T02:05:41;98274.53;;;2.76;75.41
75627;BME280;67372;49.404;11.034;2023-03-05T02:08:13;98272.56;;;2.78;74.96
75627;BME280;67372;49.404;11.034;2023-03-05T02:10:45;98278.31;;;2.82;74.93
75627;BME280;67372;49.404;11.034;2023-03-05T02:13:20;98265.47;;;2.78;75.18
75627;BME280;67372;49.404;11.034;2023-03-05T02:15:48;98263.84;;;2.77;75.16
75627;BME280;67372;49.404;11.034;2023-03-05T02:18:16;98262.19;;;2.76;75.09
75627;BME280;67372;49.404;11.034;2023-03-05T02:21:08;98258.72;;;2.76;74.92
75627;BME280;67372;49.404;11.034;2023-03-05T02:23:35;98261.38;;;2.76;74.87
75627;BME280;67372;49.404;11.034;2023-03-05T02:26:08;98254.28;;;2.76;74.90
75627;BME280;67372;49.404;11.034;2023-03-05T02:28:56;98256.28;;;2.74;74.74
75627;BME280;67372;49.404;11.034;2023-03-05T02:31:24;98252.31;;;2.70;74.84
75627;BME280;67372;49.404;11.034;2023-03-05T02:33:51;98249.69;;;2.70;74.58
75627;BME280;67372;49.404;11.034;2023-03-05T02:36:18;98247.22;;;2.69;75.27
75627;BME280;67372;49.404;11.034;2023-03-05T02:38:45;98242.63;;;2.71;74.55
75627;BME280;67372;49.404;11.034;2023-03-05T02:41:12;98244.91;;;2.74;74.52
75627;BME280;67372;49.404;11.034;2023-03-05T02:43:38;98231.91;;;2.72;74.04
75627;BME280;67372;49.404;11.034;2023-03-05T02:46:05;98229.28;;;2.72;74.59
75627;BME280;67372;49.404;11.034;2023-03-05T02:48:32;98236.84;;;2.75;74.62
75627;BME280;67372;49.404;11.034;2023-03-05T02:50:59;98232.91;;;2.71;74.24
75627;BME280;67372;49.404;11.034;2023-03-05T02:53:26;98232.72;;;2.73;74.55
75627;BME280;67372;49.404;11.034;2023-03-05T02:55:52;98225.81;;;2.72;74.71
75627;BME280;67372;49.404;11.034;2023-03-05T02:58:19;98213.31;;;2.74;74.34
75627;BME280;67372;49.404;11.034;2023-03-05T03:00:45;98206.53;;;2.80;nan
75627;BME280;67372;49.404;11.034;2023-03-05T03:03:12;98211.34;;;2.84;73.96
75627;BME280;67372;49.404;11.034;2023-03-05T03:05:38;98213.28;;;2.82;74.38
75627;BME280;67372;49.404;11.034;2023-03-05T03:08:05;98214.94;;;2.83;74.44
75627;BME280;67372;49.404;11.034;2023-03-05T03:10:32;98214.09;;;2.83;73.82
75627;BME280;67372;49.404;11.034;2023-03-05T03:12:58;98216.44;;;2.77;74.28
75627;BME280;67372;49.404;11.034;2023-03-05T03:15:24;98218.88;;;2.79;74.11
75627;BME280;67372;49.404;11.034;2023-03-05T03:17:51;98207.88;;;2.75;74.14
75627;BME280;67372;49.404;11.034;2023-03-05T03:20:17;98208.88;;;2.74;73.77
75627;BME280;67372;49.404;11.034;2023-03-05T03:22:44;98206.06;;;2.76;74.13
75627;BME280;67372;49.404;11.034;2023-03-05T03:25:16;98200.78;;;2.76;74.21
75627;BME280;67372;49.404;11.034;2023-03-05T03:27:42;98198.00;;;2.69;73.89
75627;BME280;67372;49.404;11.034;2023-03-05T03:30:10;98191.91;;;2.69;74.00
75627;BME280;67372;49.404;11.034;2023-03-05T03:32:37;98196.69;;;2.73;74.41
75627;BME280;67372;49.404;11.034;2023-03-05T03:35:03;98197.03;;;2.70;74.27
75627;BME280;67372;49.404;11.034;2023-03-05T03:37:30;98195.53;;;2.68;74.54
75627;BME280;67372;49.404;11.034;2023-03-05T03:39:56;98200.31;;;2.64;74.66
75627;BME280;67372;49.404;11.034;2023-03-05T03:42:23;98196.06;;;2.63;73.98
75627;BME280;67372;49.404;11.034;2023-03-05T03:44:50;98190.94;;;2.62;74.47
75627;BME280;67372;49.404;11.034;2023-03-05T03:47:17;98192.59;;;2.63;74.45
75627;BME280;67372;49.404;11.034;2023-03-05T03:49:43;98196.53;;;2.67;73.91
75627;BME280;67372;49.404;11.034;2023-03-05T03:52:10;98185.53;;;2.63;73.71
75627;BME280;67372;49.404;11.034;2023-03-05T03:54:36;98190.78;;;2.63;74.46
75627;BME280;67372;49.404;11.034;2023-03-05T03:57:02;98183.53;;;2.65;73.89
75627;BME280;67372;49.404;11.034;2023-03-05T03:59:29;98184.03;;;2.69;73.68
75627;BME280;67372;49.404;11.034;2023-03-05T04:01:55;98179.75;;;2.68;74.04
75627;BME280;67372;49.404;11.034;2023-03-05T04:04:21;98176.13;;;2.69;73.91
75627;BME280;67372;49.404;11.034;2023-03-05T04:06:48;98179.56;;;2.69;73.73
75627;BME280;67372;49.404;11.034;2023-03-05T04:09:14;98181.38;;;2.69;73.62
75627;BME280;67372;49.404;11.034;2023-03-05T04:11:40;98176.63;;;2.64;74.69
75627;BME280;67372;49.404;11.034;2023-03-05T04:14:07;98176.28;;;2.67;73.96
75627;BME280;67372;49.404;11.034;2023-03-05T04:16:33;98167.88;;;2.72;73.81
75627;BME280;67372;49.404;11.034;2023-03-05T04:18:59;98166.06;;;2.72;73.93
75627;BME280;67372;49.404;11.034;2023-03-05T04:21:26;98161.63;;;2.73;73.77
75627;BME280;67372;49.404;11.034;2023-03-05T04:23:52;98162.28;;;2.75;74.04
75627;BME280;67372;49.404;11.034;2023-03-05T04:26:18;98156.69;;;2.78;73.71
75627;BME280;67372;49.404;11.034;2023-03-05T04:28:45;98156.97;;;2.83;73.74
75627;BME280;67372;49.404;11.034;2023-03-05T04:31:12;98153.06;;;2.87;73.16
75627;BME280;67372;49.404;11.034;2023-03-05T04:33:38;98164.41;;;2.88;73.73
75627;BME280;67372;49.404;11.034;2023-03-05T04:36:05;98156.50;;;2.88;73.58
75627;BME280;67372;49.404;11.034;2023-03-05T04:38:31;98151.88;;;2.90;73.09
75627;BME280;67372;49.404;11.034;2023-03-05T04:40:57;98150.56;;;2.94;72.91
75627;BME280;67372;49.404;11.034;2023-03-05T04:43:24;98147.28;;;2.92;73.50
75627;BME280;67372;49.404;11.034;2023-03-05T04:45:50;98149.91;;;2.92;73.64
75627;BME280;67372;49.404;11.034;2023-03-05T04:48:16;98155.16;;;2.92;73.31
75627;BME280;67372;49.404;11.034;2023-03-05T04:50:43;98150.91;;;2.91;73.30
75627;BME280;67372;49.404;11.034;2023-03-05T04:53:09;98145.13;;;2.95;73.38
75627;BME280;67372;49.404;11.034;2023-03-05T04:55:35;98155.47;;;2.97;73.66
75627;BME280;67372;49.404;11.034;2023-03-05T04:58:02;98150.03;;;2.98;73.35
75627;BME280;67372;49.404;11.034;2023-03-05T05:00:29;98142.63;;;3.02;73.15
75627;BME280;67372;49.404;11.034;2023-03-05T05:02:55;98138.97;;;3.03;72.87
75627;BME280;67372;49.404;11.034;2023-03-05T05:05:23;98134.53;;;3.03;73.33
75627;BME280;67372;49.404;11.034;2023-03-05T05:07:54;98137.16;;;3.03;72.93
75627;BME280;67372;49.404;11.034;2023-03-05T05:10:22;98138.81;;;3.04;73.19
75627;BME280;67372;49.404;11.034;2023-03-05T05:12:48;98138.16;;;3.02;72.58
75627;BME280;67372;49.404;11.034;2023-03-05T05:15:15;98132.91;;;3.02;72.84
75627;BME280;67372;49.404;11.034;2023-03-05T05:17:41;98125.63;;;3.04;72.84
75627;BME280;67372;49.404;11.034;2023-03-05T05:20:09;98126.28;;;3.06;73.90
75627;BME280;67372;49.404;11.034;2023-03-05T05:22:35;98129.75;;;3.07;73.31
75627;BME280;67372;49.404;11.034;2023-03-05T05:25:02;98132.06;;;3.10;72.63
75627;BME280;67372;49.404;11.034;2023-03-05T05:27:29;98133.72;;;3.03;73.18
75627;BME280;67372;49.404;11.034;2023-03-05T05:29:56;98135.88;;;2.99;72.82
75627;BME280;67372;49.404;11.034;2023-03-05T05:32:23;98132.94;;;2.94;73.70
75627;BME280;67372;49.404;11.034;2023-03-05T05:34:54;98136.22;;;2.96;73.13
75627;BME280;67372;49.404;11.034;2023-03-05T05:37:21;98131.94;;;2.95;73.25
75627;BME280;67372;49.404;11.034;2023-03-05T05:39:48;98126.03;;;2.93;73.19
75627;BME280;67372;49.404;11.034;2023-03-05T05:42:19;98133.28;;;2.91;73.19
75627;BME280;67372;49.404;11.034;2023-03-05T05:44:45;98135.44;;;2.88;73.63
75627;BME280;67372;49.404;11.034;2023-03-05T05:47:13;98136.44;;;2.87;73.73
75627;BME280;67372;49.404;11.034;2023-03-05T05:49:40;98134.78;;;2.86;73.91
75627;BME280;67372;49.404;11.034;2023-03-05T05:52:06;98132.47;;;2.83;74.06
75627;BME280;67372;49.404;11.034;2023-03-05T05:54:33;98138.88;;;2.80;73.61
75627;BME280;67372;49.404;11.034;2023-03-05T05:56:59;98139.22;;;2.77;74.28
75627;BME280;67372;49.404;11.034;2023-03-05T05:59:26;98139.75;;;2.72;74.14
75627;BME280;67372;49.404;11.034;2023-03-05T06:01:52;98139.09;;;2.70;74.23
75627;BME280;67372;49.404;11.034;2023-03-05T06:04:19;98132.19;;;2.69;73.87
75627;BME280;67372;49.404;11.034;2023-03-05T06:06:45;98139.44;;;2.67;74.18
75627;BME280;67372;49.404;11.034;2023-03-05T06:09:11;98141.06;;;2.68;74.85
75627;BME280;67372;49.404;11.034;2023-03-05T06:11:38;98132.53;;;2.66;74.98
75627;BME280;67372;49.404;11.034;2023-03-05T06:14:04;98139.94;;;2.63;75.46
75627;BME280;67372;49.404;11.034;2023-03-05T06:16:30;98140.94;;;2.62;74.88
75627;BME280;67372;49.404;11.034;2023-03-05T06:18:57;98140.94;;;2.62;75.29
75627;BME280;67372;49.404;11.034;2023-03-05T06:21:23;98140.59;;;2.65;74.58
75627;BME280;67372;49.404;11.034;2023-03-05T06:23:50;98139.44;;;2.67;74.86
75627;BME280;67372;49.404;11.034;2023-03-05T06:26:19;98140.91;;;2.70;74.77
75627;BME280;67372;49.404;11.034;2023-03-05T06:28:45;98140.56;;;2.73;74.97
75627;BME280;67372;49.404;11.034;2023-03-05T06:31:18;98141.03;;;2.76;75.03
75627;BME280;67372;49.404;11.034;2023-03-05T06:33:44;98132.63;;;2.81;74.52
75627;BME280;67372;49.404;11.034;2023-03-05T06:36:13;98139.22;;;2.85;74.42
75627;BME280;67372;49.404;11.034;2023-03-05T06:38:41;98140.34;;;2.91;74.06
75627;BME280;67372;49.404;11.034;2023-03-05T06:41:10;98139.38;;;2.92;74.26
75627;BME280;67372;49.404;11.034;2023-03-05T06:43:39;98130.31;;;2.94;74.51
75627;BME280;67372;49.404;11.034;2023-03-05T06:46:15;98135.34;;;3.04;74.34
75627;BME280;67372;49.404;11.034;2023-03-05T06:48:42;98140.28;;;3.15;73.70
75627;BME280;67372;49.404;11.034;2023-03-05T06:51:21;98126.88;;;3.25;74.12
75627;BME280;67372;49.404;11.034;2023-03-05T06:53:48;98128.00;;;3.30;73.87
75627;BME280;67372;49.404;11.034;2023-03-05T06:56:15;98126.50;;;3.36;73.72
75627;BME280;67372;49.404;11.034;2023-03-05T06:58:43;98127.34;;;3.36;73.34
75627;BME280;67372;49.404;11.034;2023-03-05T07:01:10;98129.16;;;3.36;73.36
75627;BME280;67372;49.404;11.034;2023-03-05T07:03:37;98133.63;;;3.27;73.49
75627;BME280;67372;49.404;11.034;2023-03-05T07:06:05;98128.81;;;3.31;73.47
75627;BME280;67372;49.404;11.034;2023-03-05T07:08:32;98130.50;;;3.32;72.87
75627;BME280;67372;49.404;11.034;2023-03-05T07:10:59;98138.25;;;3.25;73.70
75627;BME280;67372;49.404;11.034;2023-03-05T07:13:26;98132.16;;;3.25;73.11
75627;BME280;67372;49.404;11.034;2023-03-05T07:15:53;98129.16;;;3.28;73.23
75627;BME280;67372;49.404;11.034;2023-03-05T07:18:20;98130.50;;;3.24;73.56
75627;BME280;67372;49.404;11.034;2023-03-05T07:20:46;98129.00;;;3.29;73.06
75627;BME280;67372;49.404;11.034;2023-03-05T07:23:13;98130.81;;;3.29;73.03
75627;BME280;67372;49.404;11.034;2023-03-05T07:25:39;98127.34;;;3.28;73.42
75627;BME280;67372;49.404;11.034;2023-03-05T07:28:06;98131.97;;;3.34;73.20
75627;BME280;67372;49.404;11.034;2023-03-05T07:30:33;98125.22;;;3.32;73.26
75627;BME280;67372;49.404;11.034;2023-03-05T07:32:59;98127.34;;;3.28;73.54
75627;BME280;67372;49.404;11.034;2023-03-05T07:35:26;98118.16;;;3.24;73.89
75627;BME280;67372;49.404;11.034;2023-03-05T07:37:52;98116.63;;;3.30;73.39
75627;BME280;67372;49.404;11.034;2023-03-05T07:40:18;98118.13;;;3.32;73.38
75627;BME280;67372;49.404;11.034;2023-03-05T07:42:45;98120.53;;;3.42;73.85
75627;BME280;67372;49.404;11.034;2023-03-05T07:45:11;98113.16;;;3.37;73.48
75627;BME280;67372;49.404;11.034;2023-03-05T07:47:38;98120.13;;;3.53;73.80
75627;BME280;67372;49.404;11.034;2023-03-05T07:50:04;98116.13;;;3.65;73.05
75627;BME280;67372;49.404;11.034;2023-03-05T07:52:31;98116.66;;;3.61;72.74
75627;BME280;67372;49.404;11.034;2023-03-05T07:54:57;98116.84;;;3.59;72.36
75627;BME280;67372;49.404;11.034;2023-03-05T07:57:24;98113.19;;;3.60;72.78
75627;BME280;67372;49.404;11.034;2023-03-05T07:59:50;98111.03;;;3.64;72.81
75627;BME280;67372;49.404;11.034;2023-03-05T08:02:17;98110.97;;;3.72;73.06
75627;BME280;67372;49.404;11.034;2023-03-05T08:04:43;98113.22;;;3.83;71.93
75627;BME280;67372;49.404;11.034;2023-03-05T08:07:13;98118.13;;;3.86;72.74
75627;BME280;67372;49.404;11.034;2023-03-05T08:09:39;98106.69;;;3.94;72.47
75627;BME280;67372;49.404;11.034;2023-03-05T08:12:09;98110.59;;;3.98;71.87
75627;BME280;67372;49.404;11.034;2023-03-05T08:14:36;98116.13;;;4.11;71.30
75627;BME280;67372;49.404;11.034;2023-03-05T08:17:03;98111.31;;;4.15;70.76
75627;BME280;67372;49.404;11.034;2023-03-05T08:19:31;98104.41;;;4.14;70.08
75627;BME280;67372;49.404;11.034;2023-03-05T08:21:58;98107.69;;;4.16;69.80
75627;BME280;67372;49.404;11.034;2023-03-05T08:24:24;98109.50;;;4.15;70.09
75627;BME280;67372;49.404;11.034;2023-03-05T08:26:51;98104.63;;;4.27;68.94
75627;BME280;67372;49.404;11.034;2023-03-05T08:29:20;98105.09;;;4.30;68.24
75627;BME280;67372;49.404;11.034;2023-03-05T08:31:47;98106.53;;;4.33;68.27
75627;BME280;67372;49.404;11.034;2023-03-05T08:34:13;98099.34;;;4.42;68.24
75627;BME280;67372;49.404;11.034;2023-03-05T08:36:40;98109.72;;;4.43;66.95
75627;BME280;67372;49.404;11.034;2023-03-05T08:39:06;98101.34;;;4.40;67.72
75627;BME280;67372;49.404;11.034;2023-03-05T08:41:32;98096.81;;;4.34;67.76
75627;BME280;67372;49.404;11.034;2023-03-05T08:43:59;98101.16;;;4.26;67.31
75627;BME280;67372;49.404;11.034;2023-03-05T08:46:25;98099.16;;;4.28;67.00
75627;BME280;67372;49.404;11.034;2023-03-05T08:48:52;98091.56;;;4.25;66.28
75627;BME280;67372;49.404;11.034;2023-03-05T08:51:22;98098.97;;;4.30;65.88
75627;BME280;67372;49.404;11.034;2023-03-05T08:53:49;98106.78;;;4.00;66.25
75627;BME280;67372;49.404;11.034;2023-03-05T08:56:15;98100.88;;;3.98;66.36
75627;BME280;67372;49.404;11.034;2023-03-05T08:58:41;98098.84;;;4.09;64.93
75627;BME280;67372;49.404;11.034;2023-03-05T09:01:08;98094.28;;;4.03;65.80
75627;BME280;67372;49.404;11.034;2023-03-05T09:03:35;98098.47;;;4.12;65.72
75627;BME280;67372;49.404;11.034;2023-03-05T09:06:04;98092.91;;;4.07;66.67
75627;BME280;67372;49.404;11.034;2023-03-05T09:08:31;98092.56;;;4.10;65.95
75627;BME280;67372;49.404;11.034;2023-03-05T09:10:57;98091.00;;;4.15;66.18
75627;BME280;67372;49.404;11.034;2023-03-05T09:13:24;98087.19;;;4.03;66.66
75627;BME280;67372;49.404;11.034;2023-03-05T09:15:58;98080.72;;;4.06;66.46
75627;BME280;67372;49.404;11.034;2023-03-05T09:18:25;98089.84;;;3.95;65.82
75627;BME280;67372;49.404;11.034;2023-03-05T09:20:51;98084.72;;;4.16;64.82
75627;BME280;67372;49.404;11.034;2023-03-05T09:23:18;98084.09;;;4.14;64.40
75627;BME280;67372;49.404;11.034;2023-03-05T09:25:45;98085.88;;;4.37;63.64
75627;BME280;67372;49.404;11.034;2023-03-05T09:28:12;98085.38;;;4.18;63.17
75627;BME280;67372;49.404;11.034;2023-03-05T09:30:38;98078.44;;;3.80;63.39
75627;BME280;67372;49.404;11.034;2023-03-05T09:33:05;98075.84;;;3.94;63.10
75627;BME280;67372;49.404;11.034;2023-03-05T09:35:34;98079.41;;;4.01;62.98
75627;BME280;67372;49.404;11.034;2023-03-05T09:38:01;98074.06;;;4.10;62.82
75627;BME280;67372;49.404;11.034;2023-03-05T09:40:36;98072.44;;;4.09;63.18
75627;BME280;67372;49.404;11.034;2023-03-05T09:46:12;98071.25;;;4.11;63.41
75627;BME280;67372;49.404;11.034;2023-03-05T09:48:50;98073.66;;;3.98;62.74
75627;BME280;67372;49.404;11.034;2023-03-05T09:51:22;98070.47;;;3.65;63.06
75627;BME280;67372;49.404;11.034;2023-03-05T09:53:54;98069.19;;;3.61;64.14
75627;BME280;67372;49.404;11.034;2023-03-05T09:56:29;98068.22;;;3.77;62.48
75627;BME280;67372;49.404;11.034;2023-03-05T09:59:03;98076.38;;;3.67;62.76
75627;BME280;67372;49.404;11.034;2023-03-05T10:01:39;98064.72;;;3.61;61.76
75627;BME280;67372;49.404;11.034;2023-03-05T10:06:48;98072.22;;;3.50;62.72
75627;BME280;67372;49.404;11.034;2023-03-05T10:09:26;98075.38;;;3.45;63.61
75627;BME280;67372;49.404;11.034;2023-03-05T10:12:01;98060.09;;;3.41;63.40
75627;BME280;67372;49.404;11.034;2023-03-05T10:14:34;98070.53;;;3.26;63.76
75627;BME280;67372;49.404;11.034;2023-03-05T10:28:24;98058.88;;;3.20;63.56
75627;BME280;67372;49.404;11.034;2023-03-05T10:31:06;98061.34;;;3.22;64.17
75627;BME280;67372;49.404;11.034;2023-03-05T10:33:47;98047.16;;;3.23;64.27
75627;BME280;67372;49.404;11.034;2023-03-05T10:36:41;98048.38;;;3.43;63.47
75627;BME280;67372;49.404;11.034;2023-03-05T10:39:51;98046.38;;;3.45;63.14
75627;BME280;67372;49.404;11.034;2023-03-05T10:45:11;98044.00;;;3.58;63.40
75627;BME280;67372;49.404;11.034;2023-03-05T10:48:04;98037.81;;;3.66;63.69
75627;BME280;67372;49.404;11.034;2023-03-05T10:50:47;98036.88;;;3.82;63.35
75627;BME280;67372;49.404;11.034;2023-03-05T10:55:47;98036.09;;;3.96;63.64
75627;BME280;67372;49.404;11.034;2023-03-05T10:58:15;98036.16;;;3.88;64.03
75627;BME280;67372;49.404;11.034;2023-03-05T11:00:58;98028.63;;;3.99;64.21
75627;BME280;67372;49.404;11.034;2023-03-05T11:03:24;98024.47;;;4.20;63.83
75627;BME280;67372;49.404;11.034;2023-03-05T11:05:58;98025.16;;;4.37;61.92
75627;BME280;67372;49.404;11.034;2023-03-05T11:08:34;98016.66;;;4.41;61.17
75627;BME280;67372;49.404;11.034;2023-03-05T11:13:37;98014.88;;;4.56;61.35
75627;BME280;67372;49.404;11.034;2023-03-05T11:16:05;98004.44;;;4.70;61.99
75627;BME280;67372;49.404;11.034;2023-03-05T11:18:32;97996.06;;;4.81;60.65
75627;BME280;67372;49.404;11.034;2023-03-05T11:21:08;97990.41;;;4.84;61.28
75627;BME280;67372;49.404;11.034;2023-03-05T11:23:35;97992.75;;;4.93;56.61
75627;BME280;67372;49.404;11.034;2023-03-05T11:26:15;97983.16;;;4.56;56.98
75627;BME280;67372;49.404;11.034;2023-03-05T11:31:21;97985.25;;;4.46;57.88
75627;BME280;67372;49.404;11.034;2023-03-05T11:39:19;97970.66;;;4.80;55.49
75627;BME280;67372;49.404;11.034;2023-03-05T11:41:56;97965.19;;;4.81;55.15
75627;BME280;67372;49.404;11.034;2023-03-05T11:50:15;97966.81;;;4.82;55.91
75627;BME280;67372;49.404;11.034;2023-03-05T11:52:46;97958.88;;;4.97;54.50
75627;BME280;67372;49.404;11.034;2023-03-05T12:00:41;97951.78;;;4.83;53.89
75627;BME280;67372;49.404;11.034;2023-03-05T12:03:24;97946.81;;;4.73;55.28
75627;BME280;67372;49.404;11.034;2023-03-05T12:08:53;97947.69;;;4.80;53.50
75627;BME280;67372;49.404;11.034;2023-03-05T12:11:24;97945.69;;;4.82;53.54
75627;BME280;67372;49.404;11.034;2023-03-05T12:16:44;97934.56;;;4.72;54.54
75627;BME280;67372;49.404;11.034;2023-03-05T12:19:59;97933.41;;;4.75;53.69
75627;BME280;67372;49.404;11.034;2023-03-05T12:22:22;97924.66;;;4.74;53.73
75627;BME280;67372;49.404;11.034;2023-03-05T12:24:50;97917.09;;;4.71;53.45
75627;BME280;67372;49.404;11.034;2023-03-05T12:27:34;97912.56;;;4.65;52.74
75627;BME280;67372;49.404;11.034;2023-03-05T12:30:01;97904.31;;;4.53;53.53
75627;BME280;67372;49.404;11.034;2023-03-05T12:40:26;97900.03;;;4.52;54.48
75627;BME280;67372;49.404;11.034;2023-03-05T12:43:02;97898.53;;;4.65;54.49
75627;BME280;67372;49.404;11.034;2023-03-05T12:45:37;97880.84;;;4.65;54.39
75627;BME280;67372;49.404;11.034;2023-03-05T12:52:58;97876.16;;;4.82;54.25
75627;BME280;67372;49.404;11.034;2023-03-05T12:55:49;97873.16;;;4.85;52.97
75627;BME280;67372;49.404;11.034;2023-03-05T12:58:20;97881.81;;;4.79;54.42
75627;BME280;67372;49.404;11.034;2023-03-05T13:01:05;97873.28;;;4.77;53.00
75627;BME280;67372;49.404;11.034;2023-03-05T13:03:55;97866.78;;;4.79;52.76
75627;BME280;67372;49.404;11.034;2023-03-05T13:06:28;97869.88;;;4.83;53.76
75627;BME280;67372;49.404;11.034;2023-03-05T13:09:00;97863.16;;;4.80;53.41
75627;BME280;67372;49.404;11.034;2023-03-05T13:11:29;97867.28;;;4.68;53.22
75627;BME280;67372;49.404;11.034;2023-03-05T13:13:56;97869.44;;;4.79;53.80
75627;BME280;67372;49.404;11.034;2023-03-05T13:16:25;97871.06;;;4.80;53.36
75627;BME280;67372;49.404;11.034;2023-03-05T13:18:54;97873.06;;;4.57;54.33
75627;BME280;67372;49.404;11.034;2023-03-05T13:21:27;97868.25;;;4.46;54.56
75627;BME280;67372;49.404;11.034;2023-03-05T13:23:57;97870.16;;;4.52;55.69
75627;BME280;67372;49.404;11.034;2023-03-05T13:26:36;97872.44;;;4.55;54.67
75627;BME280;67372;49.404;11.034;2023-03-05T13:29:17;97860.72;;;4.64;54.07
75627;BME280;67372;49.404;11.034;2023-03-05T13:31:50;97869.84;;;4.61;54.39
75627;BME280;67372;49.404;11.034;2023-03-05T13:34:28;97862.31;;;4.58;54.49
75627;BME280;67372;49.404;11.034;2023-03-05T13:37:21;97854.38;;;4.58;54.55
75627;BME280;67372;49.404;11.034;2023-03-05T13:39:53;97862.94;;;4.60;54.96
75627;BME280;67372;49.404;11.034;2023-03-05T13:42:31;97857.91;;;4.66;55.10
75627;BME280;67372;49.404;11.034;2023-03-05T13:45:01;97852.22;;;4.69;54.97
75627;BME280;67372;49.404;11.034;2023-03-05T13:47:30;97848.16;;;4.66;54.77
75627;BME280;67372;49.404;11.034;2023-03-05T13:49:59;97839.47;;;4.72;54.66
75627;BME280;67372;49.404;11.034;2023-03-05T13:52:29;97842.03;;;4.66;54.15
75627;BME280;67372;49.404;11.034;2023-03-05T13:54:57;97838.16;;;4.61;55.37
75627;BME280;67372;49.404;11.034;2023-03-05T13:57:33;97834.44;;;4.56;55.37
75627;BME280;67372;49.404;11.034;2023-03-05T14:00:00;97835.81;;;4.52;55.74
75627;BME280;67372;49.404;11.034;2023-03-05T14:02:28;97835.06;;;4.58;55.52
75627;BME280;67372;49.404;11.034;2023-03-05T14:04:57;97834.53;;;4.48;56.27
75627;BME280;67372;49.404;11.034;2023-03-05T14:07:38;97832.63;;;4.56;55.62
75627;BME280;67372;49.404;11.034;2023-03-05T14:10:30;97825.91;;;4.54;55.45
75627;BME280;67372;49.404;11.034;2023-03-05T14:12:57;97821.72;;;4.66;54.88
75627;BME280;67372;49.404;11.034;2023-03-05T14:15:27;97818.66;;;4.62;55.27